createdAt,value
2018-07-19T21:26:39.032Z,92.10
2018-07-19T21:29:07.249Z,92.30
2018-07-19T21:31:35.472Z,92.50
2018-07-19T21:36:31.801Z,92.60
2018-07-19T21:39:00.011Z,92.50
2018-07-19T21:41:28.204Z,92.80
2018-07-19T21:43:56.421Z,92.70
2018-07-19T21:46:24.640Z,93.30
2018-07-19T21:48:52.834Z,94.10
2018-07-19T21:51:21.041Z,94.60
2018-07-19T21:53:49.241Z,94.70
2018-07-19T21:56:17.470Z,95.10
2018-07-19T21:58:45.658Z,95.60
2018-07-19T22:01:13.858Z,95.70
2018-07-19T22:03:42.113Z,95.80
2018-07-19T22:06:10.313Z,95.40
2018-07-19T22:08:38.509Z,95.10
2018-07-19T22:11:06.711Z,95.00
2018-07-19T22:13:34.914Z,95.20
2018-07-19T22:16:03.093Z,95.20
2018-07-19T22:18:31.305Z,95.40
2018-07-19T22:20:59.513Z,95.90
2018-07-19T22:23:27.713Z,95.90
2018-07-19T22:25:55.954Z,96.70
2018-07-19T22:28:24.110Z,97.50
2018-07-19T22:30:52.302Z,98.10
2018-07-19T22:33:20.497Z,98.30
2018-07-19T22:35:48.723Z,98.40
2018-07-19T22:38:16.925Z,98.30
2018-07-19T22:40:45.117Z,97.90
2018-07-19T22:43:13.325Z,97.80
2018-07-19T22:45:41.524Z,97.70
2018-07-19T22:48:09.751Z,97.60
2018-07-19T22:50:38.018Z,97.80
2018-07-19T22:53:06.228Z,97.90
2018-07-19T22:55:34.437Z,98.20
2018-07-19T22:58:02.665Z,98.60
2018-07-19T23:00:30.914Z,98.90
2018-07-19T23:02:59.129Z,98.80
2018-07-19T23:05:27.345Z,98.60
2018-07-19T23:07:55.561Z,98.30
2018-07-19T23:10:23.765Z,98.70
2018-07-19T23:12:52.010Z,98.60
2018-07-19T23:15:20.214Z,98.70
2018-07-19T23:17:48.458Z,98.80
2018-07-19T23:20:16.782Z,99.20
2018-07-19T23:22:54.217Z,99.10
2018-07-19T23:25:22.436Z,99.40
2018-07-19T23:27:50.810Z,99.20
2018-07-19T23:30:19.407Z,99.30
2018-07-19T23:32:48.118Z,99.20
2018-07-19T23:35:16.631Z,99.30
2018-07-19T23:37:46.647Z,99.60
2018-07-19T23:40:19.326Z,99.80
2018-07-19T23:42:51.700Z,99.90
2018-07-19T23:45:23.746Z,99.80
2018-07-19T23:47:52.358Z,99.70
2018-07-19T23:50:20.645Z,99.80
2018-07-19T23:52:49.939Z,99.20
2018-07-19T23:55:18.119Z,99.20
2018-07-19T23:57:46.317Z,99.20
